Strona główna
METAR-TAF:

METAR-TAF

Lotnisko :

Port lotniczy Bilbao

Bilbao, Hiszpania

Szerokość geograficzna: 43-18N, Długość geograficzna: 002-56W, wysokość: 42 m

Aktualna obserwacja pogody

Raport powstał 26 minut temu, godzina 11:30 UTC
Wiatr 5 kt od północno-północny zachód, zmienny między zachodnio-północny zachód i północ
Temperatura 24°C
Wilgotność 61%
Ciśnienie 1019 hPa
Widzialność 10 km lub więcej
Mało chmury na wysokości 2200 ft
Przerywane chmury na wysokości 4000 ft

METAR: LEBB 181130Z 33005KT 290V010 9999 FEW022 BKN040 24/16 Q1019 NOSIG

czas: 13:56 (11:56 UTC)

Prognoza

Raport powstał 56 minut temu, godzina 11:00 UTC
Prognoza ważna od 18 godzina 12 UTC do 19 godzina 12 UTC
Wiatr 9 kt od północno-północny zachód
Widzialność 10 km lub więcej
Rozproszone chmury na wysokości 3000 ft

TAF: LEBB 181100Z 1812/1912 33009KT 9999 SCT030 TX25/1815Z TN14/1906Z

Obserwacja i prognoza pogody dla ponad 4000 lotnisk (raport METAR i TAF).

Dostępne stacje oznaczono żółtymi i czerwonymi punktami na mapie.

Najedź kursorem aby zobaczyć nazwę stacji.

Kliknij aby zobaczyć obserwacje i prognozy pogody.

Aby zmienić mapę: kliknij na zielony przycisk z czarnym krzyżykiem, aby powiększyć; na zielony przycisk z myślnikiem, aby pomniejszyć; na zielone strzałki, aby przejść do map sąsiednich.


METAR-TAF: